Portada
METAR-TAF:

METAR-TAF

Aeroports :

Keokuk Municipal Airport

Keokuk, Iowa, Estats Units d'Amèrica

latitud: 40-28N, longitud: 091-26W, altitud: 205 m

Observació

L'informe es va fer fa 21 minuts, a les 03:55 UTC
Vent 4 kt del Nord
Temperatura -7°C
Humitat 93%
Pressió 1023 hPa
Visibilitat: 16.1 km
Cel cobert a una alçada de 2400 ft

METAR: KEOK 270355Z AUTO 35004KT 10SM OVC024 M07/M08 A3021 RMK AO2

Hora: 22:16 (04:16 UTC)


TAF: manca

Observacions i pronòstics meteorològics de més de 4000 aeroports (METAR i TAF).

Les estacions disponibles són els punts grocs i vermells al mapa.

Posi el ratolí al punt desitjat per veure el nom de l'estació.

Feu clic per veure les observacions i els pronòstics meteorològics.

Per canviar el mapa: feu clic els botons verds amb una creu de color negre per apropar; al botó verd amb un guió per allunyar la imatge; o en les fletxes verdes per a mapes adjacents.


METAR-TAF: